sensor_id;sensor_type;location;lat;lon;timestamp;pressure;altitude;pressure_sealevel;temperature;humidity
5780;BME280;2916;49.798;10.022;2023-09-19T00:00:34;148160.13;;;15.76;91.88
5780;BME280;2916;49.798;10.022;2023-09-19T00:03:02;148285.91;;;16.28;92.21
5780;BME280;2916;49.798;10.022;2023-09-19T00:05:35;148280.91;;;16.26;92.33
5780;BME280;2916;49.798;10.022;2023-09-19T00:08:04;148279.66;;;16.25;93.07
5780;BME280;2916;49.798;10.022;2023-09-19T00:10:33;148278.41;;;16.25;92.86
5780;BME280;2916;49.798;10.022;2023-09-19T00:13:01;148272.19;;;16.22;92.89
5780;BME280;2916;49.798;10.022;2023-09-19T00:15:36;148272.19;;;16.22;93.17
5780;BME280;2916;49.798;10.022;2023-09-19T00:18:04;148263.44;;;16.18;93.33
5780;BME280;2916;49.798;10.022;2023-09-19T00:20:36;148082.88;;;15.44;93.82
5780;BME280;2916;49.798;10.022;2023-09-19T00:23:03;148241.03;;;16.09;94.48
5780;BME280;2916;49.798;10.022;2023-09-19T00:25:35;148242.28;;;16.10;94.59
5780;BME280;2916;49.798;10.022;2023-09-19T00:28:03;148190.00;;;15.88;94.55
5780;BME280;2916;49.798;10.022;2023-09-19T00:30:32;148242.28;;;16.10;94.73
5780;BME280;2916;49.798;10.022;2023-09-19T00:32:59;148244.75;;;16.11;94.68
5780;BME280;2916;49.798;10.022;2023-09-19T00:35:28;148206.16;;;15.95;94.88
5780;BME280;2916;49.798;10.022;2023-09-19T00:37:58;148236.09;;;16.07;94.67
5780;BME280;2916;49.798;10.022;2023-09-19T00:40:25;148233.56;;;16.06;95.26
5780;BME280;2916;49.798;10.022;2023-09-19T00:42:57;148208.69;;;15.96;95.09
5780;BME280;2916;49.798;10.022;2023-09-19T00:45:25;148228.59;;;16.04;95.18
5780;BME280;2916;49.798;10.022;2023-09-19T00:47:54;148186.22;;;15.87;95.22
5780;BME280;2916;49.798;10.022;2023-09-19T00:50:25;148059.19;;;15.35;95.25
5780;BME280;2916;49.798;10.022;2023-09-19T00:52:55;148217.41;;;16.00;95.29
5780;BME280;2916;49.798;10.022;2023-09-19T00:55:25;148248.53;;;16.12;95.60
5780;BME280;2916;49.798;10.022;2023-09-19T00:57:56;148105.25;;;15.54;95.55
5780;BME280;2916;49.798;10.022;2023-09-19T01:00:24;148216.13;;;15.99;95.54
5780;BME280;2916;49.798;10.022;2023-09-19T01:02:52;148046.75;;;15.30;95.59
5780;BME280;2916;49.798;10.022;2023-09-19T01:05:19;148066.66;;;15.38;95.86
5780;BME280;2916;49.798;10.022;2023-09-19T01:07:46;148237.31;;;16.08;95.33
5780;BME280;2916;49.798;10.022;2023-09-19T01:10:17;148161.34;;;15.77;96.10
5780;BME280;2916;49.798;10.022;2023-09-19T01:13:04;148213.63;;;15.98;96.48
5780;BME280;2916;49.798;10.022;2023-09-19T01:15:44;148160.13;;;15.76;96.50
5780;BME280;2916;49.798;10.022;2023-09-19T01:18:28;148181.28;;;15.85;96.60
5780;BME280;2916;49.798;10.022;2023-09-19T01:21:08;148234.81;;;16.07;97.24
5780;BME280;2916;49.798;10.022;2023-09-19T01:24:01;148168.78;;;15.80;97.69
5780;BME280;2916;49.798;10.022;2023-09-19T01:27:02;148160.13;;;15.76;98.16
5780;BME280;2916;49.798;10.022;2023-09-19T01:29:39;148138.91;;;15.67;98.27
5780;BME280;2916;49.798;10.022;2023-09-19T01:32:10;148213.63;;;15.98;98.76
5780;BME280;2916;49.798;10.022;2023-09-19T01:34:46;148176.28;;;15.83;98.97
5780;BME280;2916;49.798;10.022;2023-09-19T01:37:15;148198.72;;;15.92;99.31
5780;BME280;2916;49.798;10.022;2023-09-19T01:39:46;148193.72;;;15.90;99.68
5780;BME280;2916;49.798;10.022;2023-09-19T01:42:28;148181.28;;;15.85;100.00
5780;BME280;2916;49.798;10.022;2023-09-19T01:45:06;148173.78;;;15.82;100.00
5780;BME280;2916;49.798;10.022;2023-09-19T01:47:43;148176.28;;;15.83;100.00
5780;BME280;2916;49.798;10.022;2023-09-19T01:50:22;148166.31;;;15.79;100.00
5780;BME280;2916;49.798;10.022;2023-09-19T01:52:59;147959.63;;;14.94;100.00
5780;BME280;2916;49.798;10.022;2023-09-19T01:55:36;148160.13;;;15.76;100.00
5780;BME280;2916;49.798;10.022;2023-09-19T01:58:10;148160.13;;;15.76;100.00
5780;BME280;2916;49.798;10.022;2023-09-19T02:00:42;148123.94;;;15.61;100.00
5780;BME280;2916;49.798;10.022;2023-09-19T02:03:13;148138.91;;;15.67;100.00
5780;BME280;2916;49.798;10.022;2023-09-19T02:05:41;148156.34;;;15.75;100.00
5780;BME280;2916;49.798;10.022;2023-09-19T02:08:08;148059.19;;;15.35;100.00
5780;BME280;2916;49.798;10.022;2023-09-19T02:10:36;148116.47;;;15.58;100.00
5780;BME280;2916;49.798;10.022;2023-09-19T02:13:03;148128.91;;;15.63;100.00
5780;BME280;2916;49.798;10.022;2023-09-19T02:15:31;148094.06;;;15.49;100.00
5780;BME280;2916;49.798;10.022;2023-09-19T02:18:00;148152.63;;;15.73;100.00
5780;BME280;2916;49.798;10.022;2023-09-19T02:20:30;148128.91;;;15.63;100.00
5780;BME280;2916;49.798;10.022;2023-09-19T02:22:58;148132.72;;;15.65;100.00
5780;BME280;2916;49.798;10.022;2023-09-19T02:25:25;148170.06;;;15.80;100.00
5780;BME280;2916;49.798;10.022;2023-09-19T02:27:53;148131.41;;;15.64;100.00
5780;BME280;2916;49.798;10.022;2023-09-19T02:30:24;148086.59;;;15.46;100.00
5780;BME280;2916;49.798;10.022;2023-09-19T02:32:51;148138.91;;;15.67;100.00
5780;BME280;2916;49.798;10.022;2023-09-19T02:35:19;148173.78;;;15.82;100.00
5780;BME280;2916;49.798;10.022;2023-09-19T02:37:48;148192.47;;;15.89;100.00
5780;BME280;2916;49.798;10.022;2023-09-19T02:40:16;148183.75;;;15.86;100.00
5780;BME280;2916;49.798;10.022;2023-09-19T02:42:46;148156.34;;;15.75;100.00
5780;BME280;2916;49.798;10.022;2023-09-19T02:45:15;148100.25;;;15.52;100.00
5780;BME280;2916;49.798;10.022;2023-09-19T02:47:44;148006.91;;;15.13;100.00
5780;BME280;2916;49.798;10.022;2023-09-19T02:50:12;148121.47;;;15.60;100.00
5780;BME280;2916;49.798;10.022;2023-09-19T02:52:41;148175.03;;;15.82;100.00
5780;BME280;2916;49.798;10.022;2023-09-19T02:55:13;148092.81;;;15.49;100.00
5780;BME280;2916;49.798;10.022;2023-09-19T02:57:46;148137.66;;;15.67;100.00
5780;BME280;2916;49.798;10.022;2023-09-19T03:00:15;148064.19;;;15.37;100.00
5780;BME280;2916;49.798;10.022;2023-09-19T03:02:42;148091.53;;;15.48;100.00
5780;BME280;2916;49.798;10.022;2023-09-19T03:05:12;147979.53;;;15.02;100.00
5780;BME280;2916;49.798;10.022;2023-09-19T03:07:39;148202.44;;;15.93;100.00
5780;BME280;2916;49.798;10.022;2023-09-19T03:10:10;148193.72;;;15.90;100.00
5780;BME280;2916;49.798;10.022;2023-09-19T03:12:37;148110.22;;;15.56;100.00
5780;BME280;2916;49.798;10.022;2023-09-19T03:15:07;148198.72;;;15.92;100.00
5780;BME280;2916;49.798;10.022;2023-09-19T03:17:35;148182.50;;;15.85;100.00
5780;BME280;2916;49.798;10.022;2023-09-19T03:20:03;148125.19;;;15.62;100.00
5780;BME280;2916;49.798;10.022;2023-09-19T03:22:34;148176.28;;;15.83;100.00
5780;BME280;2916;49.798;10.022;2023-09-19T03:25:01;148168.78;;;15.80;100.00
5780;BME280;2916;49.798;10.022;2023-09-19T03:27:35;148156.34;;;15.75;100.00
5780;BME280;2916;49.798;10.022;2023-09-19T03:30:04;148113.97;;;15.57;100.00
5780;BME280;2916;49.798;10.022;2023-09-19T03:32:34;148148.88;;;15.71;100.00
5780;BME280;2916;49.798;10.022;2023-09-19T03:35:02;148143.91;;;15.69;100.00
5780;BME280;2916;49.798;10.022;2023-09-19T03:37:31;148133.94;;;15.65;100.00
5780;BME280;2916;49.798;10.022;2023-09-19T03:39:59;148132.72;;;15.65;100.00
5780;BME280;2916;49.798;10.022;2023-09-19T03:42:30;148126.41;;;15.62;100.00
5780;BME280;2916;49.798;10.022;2023-09-19T03:44:59;148060.41;;;15.35;100.00
5780;BME280;2916;49.798;10.022;2023-09-19T03:47:26;148151.38;;;15.73;100.00
5780;BME280;2916;49.798;10.022;2023-09-19T03:49:53;148140.19;;;15.68;100.00
5780;BME280;2916;49.798;10.022;2023-09-19T03:52:20;148148.88;;;15.71;100.00
5780;BME280;2916;49.798;10.022;2023-09-19T03:54:47;148141.44;;;15.68;100.00
5780;BME280;2916;49.798;10.022;2023-09-19T03:57:14;148137.66;;;15.67;100.00
5780;BME280;2916;49.798;10.022;2023-09-19T03:59:46;148138.91;;;15.67;100.00
5780;BME280;2916;49.798;10.022;2023-09-19T04:02:14;148133.94;;;15.65;100.00
5780;BME280;2916;49.798;10.022;2023-09-19T04:04:48;148141.44;;;15.68;100.00
5780;BME280;2916;49.798;10.022;2023-09-19T04:07:15;148142.66;;;15.69;100.00
5780;BME280;2916;49.798;10.022;2023-09-19T04:09:42;148108.97;;;15.55;100.00
5780;BME280;2916;49.798;10.022;2023-09-19T04:12:09;148136.44;;;15.66;100.00
5780;BME280;2916;49.798;10.022;2023-09-19T04:14:36;148050.47;;;15.31;100.00
5780;BME280;2916;49.798;10.022;2023-09-19T04:17:03;148142.66;;;15.69;100.00
5780;BME280;2916;49.798;10.022;2023-09-19T04:19:32;148151.38;;;15.73;100.00
5780;BME280;2916;49.798;10.022;2023-09-19T04:21:59;148128.91;;;15.63;100.00
5780;BME280;2916;49.798;10.022;2023-09-19T04:24:27;148138.91;;;15.67;100.00
5780;BME280;2916;49.798;10.022;2023-09-19T04:26:54;148133.94;;;15.65;100.00
5780;BME280;2916;49.798;10.022;2023-09-19T04:29:21;148106.50;;;15.54;100.00
5780;BME280;2916;49.798;10.022;2023-09-19T04:31:48;148108.97;;;15.55;100.00
5780;BME280;2916;49.798;10.022;2023-09-19T04:34:15;148111.50;;;15.56;100.00
5780;BME280;2916;49.798;10.022;2023-09-19T04:36:44;148089.06;;;15.47;100.00
5780;BME280;2916;49.798;10.022;2023-09-19T04:39:11;148071.63;;;15.40;100.00
5780;BME280;2916;49.798;10.022;2023-09-19T04:41:40;148079.09;;;15.43;100.00
5780;BME280;2916;49.798;10.022;2023-09-19T04:44:07;148096.53;;;15.50;100.00
5780;BME280;2916;49.798;10.022;2023-09-19T04:46:34;148091.53;;;15.48;100.00
5780;BME280;2916;49.798;10.022;2023-09-19T04:49:02;148081.56;;;15.44;100.00
5780;BME280;2916;49.798;10.022;2023-09-19T04:51:29;147973.28;;;15.00;100.00
5780;BME280;2916;49.798;10.022;2023-09-19T04:54:01;148072.84;;;15.40;100.00
5780;BME280;2916;49.798;10.022;2023-09-19T04:56:28;148066.66;;;15.38;100.00
5780;BME280;2916;49.798;10.022;2023-09-19T04:58:57;148052.94;;;15.32;100.00
5780;BME280;2916;49.798;10.022;2023-09-19T05:01:24;148061.66;;;15.36;100.00
5780;BME280;2916;49.798;10.022;2023-09-19T05:03:51;148062.91;;;15.36;100.00
5780;BME280;2916;49.798;10.022;2023-09-19T05:06:18;148064.19;;;15.37;100.00
5780;BME280;2916;49.798;10.022;2023-09-19T05:08:47;148051.72;;;15.32;100.00
5780;BME280;2916;49.798;10.022;2023-09-19T05:11:18;148051.72;;;15.32;100.00
5780;BME280;2916;49.798;10.022;2023-09-19T05:13:47;148034.25;;;15.25;100.00
5780;BME280;2916;49.798;10.022;2023-09-19T05:16:16;148057.94;;;15.34;100.00
5780;BME280;2916;49.798;10.022;2023-09-19T05:18:43;148060.41;;;15.35;100.00
5780;BME280;2916;49.798;10.022;2023-09-19T05:21:10;148059.19;;;15.35;100.00
5780;BME280;2916;49.798;10.022;2023-09-19T05:23:38;148062.91;;;15.36;100.00
5780;BME280;2916;49.798;10.022;2023-09-19T05:26:05;148054.22;;;15.33;100.00
5780;BME280;2916;49.798;10.022;2023-09-19T05:28:33;148035.56;;;15.25;100.00
5780;BME280;2916;49.798;10.022;2023-09-19T05:31:01;147995.69;;;15.09;100.00
5780;BME280;2916;49.798;10.022;2023-09-19T05:33:28;147889.91;;;14.65;100.00
5780;BME280;2916;49.798;10.022;2023-09-19T05:35:56;148084.09;;;15.45;100.00
5780;BME280;2916;49.798;10.022;2023-09-19T05:38:23;148106.50;;;15.54;100.00
5780;BME280;2916;49.798;10.022;2023-09-19T05:40:52;148086.59;;;15.46;100.00
5780;BME280;2916;49.798;10.022;2023-09-19T05:43:19;148082.88;;;15.44;100.00
5780;BME280;2916;49.798;10.022;2023-09-19T05:45:48;148006.91;;;15.13;100.00
5780;BME280;2916;49.798;10.022;2023-09-19T05:48:18;148128.91;;;15.63;100.00
5780;BME280;2916;49.798;10.022;2023-09-19T05:50:46;148140.19;;;15.68;100.00
5780;BME280;2916;49.798;10.022;2023-09-19T05:53:14;148176.28;;;15.83;100.00
5780;BME280;2916;49.798;10.022;2023-09-19T05:55:42;148133.94;;;15.65;100.00
5780;BME280;2916;49.798;10.022;2023-09-19T05:58:09;148059.19;;;15.35;100.00
5780;BME280;2916;49.798;10.022;2023-09-19T06:00:39;148192.47;;;15.89;100.00
5780;BME280;2916;49.798;10.022;2023-09-19T06:03:10;148216.13;;;15.99;100.00
5780;BME280;2916;49.798;10.022;2023-09-19T06:05:37;148229.84;;;16.05;100.00
5780;BME280;2916;49.798;10.022;2023-09-19T06:08:07;148217.41;;;16.00;100.00
5780;BME280;2916;49.798;10.022;2023-09-19T06:10:35;148203.69;;;15.94;100.00
5780;BME280;2916;49.798;10.022;2023-09-19T06:13:02;148128.91;;;15.63;100.00
5780;BME280;2916;49.798;10.022;2023-09-19T06:15:32;148243.53;;;16.10;100.00
5780;BME280;2916;49.798;10.022;2023-09-19T06:18:02;148217.41;;;16.00;100.00
5780;BME280;2916;49.798;10.022;2023-09-19T06:20:32;148268.47;;;16.20;100.00
5780;BME280;2916;49.798;10.022;2023-09-19T06:22:59;148290.84;;;16.30;100.00
5780;BME280;2916;49.798;10.022;2023-09-19T06:25:27;148303.34;;;16.35;100.00
5780;BME280;2916;49.798;10.022;2023-09-19T06:27:54;148345.69;;;16.52;100.00
5780;BME280;2916;49.798;10.022;2023-09-19T06:30:23;148363.13;;;16.59;100.00
5780;BME280;2916;49.798;10.022;2023-09-19T06:32:56;148375.59;;;16.64;100.00
5780;BME280;2916;49.798;10.022;2023-09-19T06:35:23;148308.31;;;16.37;100.00
5780;BME280;2916;49.798;10.022;2023-09-19T06:37:53;148318.28;;;16.41;100.00
5780;BME280;2916;49.798;10.022;2023-09-19T06:40:23;148327.00;;;16.44;100.00
5780;BME280;2916;49.798;10.022;2023-09-19T06:42:51;148318.28;;;16.41;100.00
5780;BME280;2916;49.798;10.022;2023-09-19T06:45:20;148325.75;;;16.44;100.00
5780;BME280;2916;49.798;10.022;2023-09-19T06:47:49;148329.47;;;16.45;100.00
5780;BME280;2916;49.798;10.022;2023-09-19T06:50:16;148345.69;;;16.52;100.00
5780;BME280;2916;49.798;10.022;2023-09-19T06:52:45;148214.88;;;15.99;100.00
5780;BME280;2916;49.798;10.022;2023-09-19T06:55:18;148300.81;;;16.34;99.82
5780;BME280;2916;49.798;10.022;2023-09-19T06:57:45;148313.31;;;16.39;99.07
5780;BME280;2916;49.798;10.022;2023-09-19T07:00:14;148298.34;;;16.33;99.50
5780;BME280;2916;49.798;10.022;2023-09-19T07:02:44;148265.97;;;16.19;98.88
5780;BME280;2916;49.798;10.022;2023-09-19T07:05:11;148340.69;;;16.50;99.41
5780;BME280;2916;49.798;10.022;2023-09-19T07:07:38;148386.78;;;16.69;98.97
5780;BME280;2916;49.798;10.022;2023-09-19T07:10:06;148467.88;;;17.02;98.05
5780;BME280;2916;49.798;10.022;2023-09-19T07:12:37;148616.19;;;17.63;93.85
5780;BME280;2916;49.798;10.022;2023-09-19T07:15:05;148891.94;;;18.76;91.68
5780;BME280;2916;49.798;10.022;2023-09-19T07:17:33;148891.94;;;18.76;85.64
5780;BME280;2916;49.798;10.022;2023-09-19T07:20:00;148893.19;;;18.76;85.16
5780;BME280;2916;49.798;10.022;2023-09-19T07:22:27;148894.41;;;18.77;85.39
5780;BME280;2916;49.798;10.022;2023-09-19T07:24:54;148869.41;;;18.67;85.71
5780;BME280;2916;49.798;10.022;2023-09-19T07:27:21;148936.81;;;18.94;83.61
5780;BME280;2916;49.798;10.022;2023-09-19T07:29:49;148931.84;;;18.92;81.10
5780;BME280;2916;49.798;10.022;2023-09-19T07:32:16;149147.81;;;19.80;80.05
5780;BME280;2916;49.798;10.022;2023-09-19T07:34:43;149165.28;;;19.88;78.86
5780;BME280;2916;49.798;10.022;2023-09-19T07:37:10;149046.69;;;19.39;77.49
5780;BME280;2916;49.798;10.022;2023-09-19T07:39:38;148879.47;;;18.71;77.14
5780;BME280;2916;49.798;10.022;2023-09-19T07:42:07;148986.78;;;19.15;78.69
5780;BME280;2916;49.798;10.022;2023-09-19T07:44:35;148936.81;;;18.94;79.04
5780;BME280;2916;49.798;10.022;2023-09-19T07:47:04;148979.28;;;19.11;78.62
5780;BME280;2916;49.798;10.022;2023-09-19T07:49:31;148885.69;;;18.73;76.89
5780;BME280;2916;49.798;10.022;2023-09-19T07:51:58;149031.69;;;19.33;76.24
5780;BME280;2916;49.798;10.022;2023-09-19T07:54:26;149131.63;;;19.74;75.57
5780;BME280;2916;49.798;10.022;2023-09-19T07:56:56;149096.59;;;19.59;72.94
5780;BME280;2916;49.798;10.022;2023-09-19T07:59:24;149209.03;;;20.05;73.66
5780;BME280;2916;49.798;10.022;2023-09-19T08:01:51;149221.50;;;20.10;72.88
5780;BME280;2916;49.798;10.022;2023-09-19T08:04:20;149064.16;;;19.46;71.60
5780;BME280;2916;49.798;10.022;2023-09-19T08:06:47;149086.59;;;19.55;73.23
5780;BME280;2916;49.798;10.022;2023-09-19T08:09:14;149146.56;;;19.80;72.45
5780;BME280;2916;49.798;10.022;2023-09-19T08:11:46;149024.22;;;19.30;73.86
5780;BME280;2916;49.798;10.022;2023-09-19T08:14:13;148993.00;;;19.17;74.34
5780;BME280;2916;49.798;10.022;2023-09-19T08:16:41;149000.50;;;19.20;75.18
5780;BME280;2916;49.798;10.022;2023-09-19T08:19:10;148939.34;;;18.95;74.81
5780;BME280;2916;49.798;10.022;2023-09-19T08:21:39;148931.84;;;18.92;76.89
5780;BME280;2916;49.798;10.022;2023-09-19T08:24:06;148943.09;;;18.97;74.44
5780;BME280;2916;49.798;10.022;2023-09-19T08:26:34;149061.63;;;19.45;75.03
5780;BME280;2916;49.798;10.022;2023-09-19T08:29:03;148976.78;;;19.10;72.30
5780;BME280;2916;49.798;10.022;2023-09-19T08:31:32;149004.25;;;19.22;74.02
5780;BME280;2916;49.798;10.022;2023-09-19T08:33:59;149056.66;;;19.43;72.46
5780;BME280;2916;49.798;10.022;2023-09-19T08:36:26;149106.63;;;19.64;70.79
5780;BME280;2916;49.798;10.022;2023-09-19T08:38:55;149084.13;;;19.54;70.79
5780;BME280;2916;49.798;10.022;2023-09-19T08:41:22;149071.66;;;19.49;69.90
5780;BME280;2916;49.798;10.022;2023-09-19T08:43:49;149129.09;;;19.73;70.71
5780;BME280;2916;49.798;10.022;2023-09-19T08:46:20;149171.56;;;19.90;69.68
5780;BME280;2916;49.798;10.022;2023-09-19T08:49:01;149136.59;;;19.76;68.38
5780;BME280;2916;49.798;10.022;2023-09-19T08:51:41;149288.94;;;20.38;66.87
5780;BME280;2916;49.798;10.022;2023-09-19T08:54:22;149281.44;;;20.35;67.23
5780;BME280;2916;49.798;10.022;2023-09-19T08:56:54;149335.19;;;20.57;66.95
5780;BME280;2916;49.798;10.022;2023-09-19T08:59:23;149181.53;;;19.94;65.62
5780;BME280;2916;49.798;10.022;2023-09-19T09:01:53;149219.00;;;20.09;66.64
5780;BME280;2916;49.798;10.022;2023-09-19T09:04:22;149220.25;;;20.10;66.94
5780;BME280;2916;49.798;10.022;2023-09-19T09:06:53;149186.53;;;19.96;66.85
5780;BME280;2916;49.798;10.022;2023-09-19T09:09:22;149170.31;;;19.90;65.77
5780;BME280;2916;49.798;10.022;2023-09-19T09:11:50;149180.31;;;19.94;65.69
5780;BME280;2916;49.798;10.022;2023-09-19T09:14:19;149260.19;;;20.26;65.55
5780;BME280;2916;49.798;10.022;2023-09-19T09:16:47;149282.66;;;20.35;64.74
5780;BME280;2916;49.798;10.022;2023-09-19T09:19:15;149261.44;;;20.27;64.40
5780;BME280;2916;49.798;10.022;2023-09-19T09:21:50;149321.44;;;20.51;63.42
5780;BME280;2916;49.798;10.022;2023-09-19T09:24:28;149291.41;;;20.39;63.66
5780;BME280;2916;49.798;10.022;2023-09-19T09:26:56;149288.94;;;20.38;63.33
5780;BME280;2916;49.798;10.022;2023-09-19T09:29:41;149250.22;;;20.22;62.92
5780;BME280;2916;49.798;10.022;2023-09-19T09:32:23;149226.50;;;20.13;60.47
5780;BME280;2916;49.798;10.022;2023-09-19T09:34:56;149271.44;;;20.31;61.87
5780;BME280;2916;49.798;10.022;2023-09-19T09:37:24;149382.66;;;20.76;61.74
5780;BME280;2916;49.798;10.022;2023-09-19T09:39:55;149441.38;;;21.00;60.04
5780;BME280;2916;49.798;10.022;2023-09-19T09:42:32;149406.38;;;20.86;58.68
5780;BME280;2916;49.798;10.022;2023-09-19T09:45:18;149366.41;;;20.70;59.05
5780;BME280;2916;49.798;10.022;2023-09-19T09:47:54;149197.78;;;20.01;60.25
5780;BME280;2916;49.798;10.022;2023-09-19T09:50:29;149176.53;;;19.92;60.08
5780;BME280;2916;49.798;10.022;2023-09-19T09:53:19;149266.47;;;20.29;59.30
5780;BME280;2916;49.798;10.022;2023-09-19T09:56:03;149176.53;;;19.92;59.57
5780;BME280;2916;49.798;10.022;2023-09-19T09:58:33;149248.97;;;20.22;59.73
5780;BME280;2916;49.798;10.022;2023-09-19T10:01:03;149263.97;;;20.28;61.42
5780;BME280;2916;49.798;10.022;2023-09-19T10:03:37;149237.75;;;20.17;60.49
5780;BME280;2916;49.798;10.022;2023-09-19T10:06:11;149166.53;;;19.88;60.52
5780;BME280;2916;49.798;10.022;2023-09-19T10:09:03;149176.53;;;19.92;59.80
5780;BME280;2916;49.798;10.022;2023-09-19T10:11:44;149285.19;;;20.37;58.97
5780;BME280;2916;49.798;10.022;2023-09-19T10:14:15;149297.69;;;20.42;58.96
5780;BME280;2916;49.798;10.022;2023-09-19T10:16:47;149175.28;;;19.92;60.07
5780;BME280;2916;49.798;10.022;2023-09-19T10:19:21;149184.03;;;19.95;60.03
5780;BME280;2916;49.798;10.022;2023-09-19T10:21:54;149191.53;;;19.98;58.86
5780;BME280;2916;49.798;10.022;2023-09-19T10:24:23;149291.41;;;20.39;58.41
5780;BME280;2916;49.798;10.022;2023-09-19T10:26:54;149301.41;;;20.43;57.88
5780;BME280;2916;49.798;10.022;2023-09-19T10:29:24;149246.50;;;20.21;57.29
5780;BME280;2916;49.798;10.022;2023-09-19T10:31:58;149320.19;;;20.51;55.89
5780;BME280;2916;49.798;10.022;2023-09-19T10:34:26;149380.19;;;20.75;55.03
5780;BME280;2916;49.798;10.022;2023-09-19T10:36:54;149408.91;;;20.87;54.60
5780;BME280;2916;49.798;10.022;2023-09-19T10:39:21;149462.59;;;21.09;54.30
5780;BME280;2916;49.798;10.022;2023-09-19T10:41:53;149413.88;;;20.89;53.80
5780;BME280;2916;49.798;10.022;2023-09-19T10:44:25;149411.41;;;20.88;54.15
5780;BME280;2916;49.798;10.022;2023-09-19T10:46:54;149401.41;;;20.84;54.28
5780;BME280;2916;49.798;10.022;2023-09-19T10:49:23;149438.91;;;20.99;55.30
5780;BME280;2916;49.798;10.022;2023-09-19T10:51:56;149421.41;;;20.92;55.70
5780;BME280;2916;49.798;10.022;2023-09-19T10:54:32;149480.09;;;21.16;55.18
5780;BME280;2916;49.798;10.022;2023-09-19T10:57:04;149598.84;;;21.65;54.45
5780;BME280;2916;49.798;10.022;2023-09-19T10:59:34;149662.63;;;21.91;54.77
5780;BME280;2916;49.798;10.022;2023-09-19T11:02:17;149683.88;;;21.99;54.33
5780;BME280;2916;49.798;10.022;2023-09-19T11:04:44;149743.91;;;22.24;51.89
5780;BME280;2916;49.798;10.022;2023-09-19T11:07:15;149732.66;;;22.19;52.19
5780;BME280;2916;49.798;10.022;2023-09-19T11:09:47;149683.88;;;21.99;51.67
5780;BME280;2916;49.798;10.022;2023-09-19T11:12:54;149857.72;;;22.70;50.46
5780;BME280;2916;49.798;10.022;2023-09-19T11:16:18;149813.97;;;22.52;52.00
5780;BME280;2916;49.798;10.022;2023-09-19T11:18:55;149828.94;;;22.59;50.12
5780;BME280;2916;49.798;10.022;2023-09-19T11:21:52;149706.41;;;22.09;51.54
5780;BME280;2916;49.798;10.022;2023-09-19T11:24:38;149727.69;;;22.17;51.17
5780;BME280;2916;49.798;10.022;2023-09-19T11:27:14;149563.91;;;21.50;51.58
5780;BME280;2916;49.798;10.022;2023-09-19T11:29:44;149651.38;;;21.86;51.99
5780;BME280;2916;49.798;10.022;2023-09-19T11:32:12;149643.88;;;21.83;52.29
5780;BME280;2916;49.798;10.022;2023-09-19T11:34:47;149741.44;;;22.23;52.21
5780;BME280;2916;49.798;10.022;2023-09-19T11:38:00;149725.16;;;22.16;50.79
5780;BME280;2916;49.798;10.022;2023-09-19T11:40:28;149621.38;;;21.74;51.20
5780;BME280;2916;49.798;10.022;2023-09-19T11:42:56;149621.38;;;21.74;51.47
5780;BME280;2916;49.798;10.022;2023-09-19T11:46:08;149610.16;;;21.69;52.09
5780;BME280;2916;49.798;10.022;2023-09-19T11:48:39;149591.41;;;21.62;51.08
5780;BME280;2916;49.798;10.022;2023-09-19T11:51:18;149590.09;;;21.61;51.27
5780;BME280;2916;49.798;10.022;2023-09-19T11:53:49;149543.91;;;21.42;50.22
5780;BME280;2916;49.798;10.022;2023-09-19T11:56:18;149576.38;;;21.55;49.96
5780;BME280;2916;49.798;10.022;2023-09-19T11:58:46;149442.63;;;21.01;49.20
5780;BME280;2916;49.798;10.022;2023-09-19T12:01:30;149521.38;;;21.33;50.83
5780;BME280;2916;49.798;10.022;2023-09-19T12:04:00;149598.84;;;21.65;50.90
5780;BME280;2916;49.798;10.022;2023-09-19T12:06:29;149640.16;;;21.81;49.53
5780;BME280;2916;49.798;10.022;2023-09-19T12:08:58;149591.41;;;21.62;49.41
5780;BME280;2916;49.798;10.022;2023-09-19T12:11:30;149630.16;;;21.77;49.41
5780;BME280;2916;49.798;10.022;2023-09-19T12:14:00;149563.91;;;21.50;50.39
5780;BME280;2916;49.798;10.022;2023-09-19T12:16:29;149661.38;;;21.90;51.02
5780;BME280;2916;49.798;10.022;2023-09-19T12:18:57;149642.63;;;21.83;50.98
5780;BME280;2916;49.798;10.022;2023-09-19T12:21:28;149618.84;;;21.73;50.97
5780;BME280;2916;49.798;10.022;2023-09-19T12:23:59;149670.13;;;21.94;50.59
5780;BME280;2916;49.798;10.022;2023-09-19T12:26:27;149716.41;;;22.13;50.21
5780;BME280;2916;49.798;10.022;2023-09-19T12:28:55;149715.13;;;22.12;50.25
5780;BME280;2916;49.798;10.022;2023-09-19T12:31:23;149688.88;;;22.01;49.78
5780;BME280;2916;49.798;10.022;2023-09-19T12:33:55;149778.94;;;22.38;50.49
5780;BME280;2916;49.798;10.022;2023-09-19T12:36:23;149746.44;;;22.25;49.40
5780;BME280;2916;49.798;10.022;2023-09-19T12:38:55;149698.88;;;22.05;50.20
5780;BME280;2916;49.798;10.022;2023-09-19T12:41:25;149688.88;;;22.01;49.32
5780;BME280;2916;49.798;10.022;2023-09-19T12:43:53;149720.19;;;22.14;49.36
5780;BME280;2916;49.798;10.022;2023-09-19T12:46:21;149728.94;;;22.18;49.80
5780;BME280;2916;49.798;10.022;2023-09-19T12:49:18;149720.19;;;22.14;50.21
5780;BME280;2916;49.798;10.022;2023-09-19T12:51:46;149641.38;;;21.82;49.47
5780;BME280;2916;49.798;10.022;2023-09-19T12:54:14;149672.63;;;21.95;50.11
5780;BME280;2916;49.798;10.022;2023-09-19T12:56:43;149676.34;;;21.96;50.93
5780;BME280;2916;49.798;10.022;2023-09-19T12:59:13;149738.94;;;22.22;50.99
5780;BME280;2916;49.798;10.022;2023-09-19T13:01:41;149657.59;;;21.89;47.76
5780;BME280;2916;49.798;10.022;2023-09-19T13:04:14;149666.34;;;21.92;48.90
5780;BME280;2916;49.798;10.022;2023-09-19T13:06:45;149687.66;;;22.01;48.00
5780;BME280;2916;49.798;10.022;2023-09-19T13:09:18;149686.34;;;22.00;47.38
5780;BME280;2916;49.798;10.022;2023-09-19T13:11:46;149691.38;;;22.02;47.42
5780;BME280;2916;49.798;10.022;2023-09-19T13:14:20;149688.88;;;22.01;47.30